Airfield :
LOGIN :

Register | Disclaimer

   EN    FR    IT 

 










Legend :    VFR   Marginal VFR   IFR   Intensive IFR   Very Intensive IFR
Visi :
Ceiling :
>= 8 km
>= 3000ft
5 to 8 km
1000 to 3000 ft
1500m to 5 km
500 to 1000 ft
800 to 1500m
200 to 500 ft
< 800m
< 200 ft
Symbols :   Thunderstorms  Fog  Heavy snow  Heavy precipitations  Wind > 20 kt
SIGMETs :     Misc.  Thunderstorms  Icing  Turbulence  Mountain Waves  Volcanic Ashes






- Airport Elevation : 256 ft
- IATA code : CFR


LFRK - Caen

CURRENT METAR :
  • 020830Z AUTO 25013KT 9999 BKN019 BKN046 BKN056 16/12 Q1014 TEMPO 4000 SHRA BKN015TCU

EXPIRED METARs :
  • 020800Z AUTO 26010KT 9999 BKN017 BKN023 BKN041 15/12 Q1014 TEMPO 4000 SHRA BKN020TCU
  • 020730Z AUTO 24010KT 9999 SCT015 BKN022 BKN037 15/13 Q1014 TEMPO 4000 SHRA BKN020TCU
  • 020700Z AUTO 23009KT 9999 BKN014 BKN028 BKN040 15/13 Q1013 TEMPO 4000 SHRA BKN020TCU
  • 020630Z AUTO 24008KT 9999 FEW012 OVC070 15/12 Q1013 TEMPO 4000 SHRA BKN020TCU
  • 020600Z AUTO 24011KT 9999 FEW013 SCT028 BKN034 14/12 Q1013 TEMPO 4000 SHRA BKN020TCU

TAF TAF LFRK
Valid from the 02 at 09:00 until the 02 at 18:00 UTC


020800Z 0209/0218 25012KT 9999 BKN020
TEMPO 0209/0215 4000 SHRA BKN015TCU
Met : +33 2 31 26 68 11



MET'MAP, your aeronautical weather chart ! - Copyright ORBIFLY December 2007 - Disclaimer

ORBIFLY MET'MAP TEAM :

Programming & Development : Alexandra Zaïnal
Concept & original design : Baudouin d'Aumeries
Assistance for programming : Marc-Olivier Méhu
Technical & hardware support : Manuel Goepfert

Contact : metmap@orbifly.com




SOURCES & CREDITS :

   NOAA